Time;durP1;ratioP1;P1;durP2;ratioP2;P2;SDS_P1;SDS_P2;PMS_P1;PMS_P2;Temp;Humidity;BMP_temperature;BMP_pressure;BME280_temperature;BME280_humidity;BME280_pressure;Samples;Min_cycle;Max_cycle;Signal;HPM_P1;HPM_P2
2021/11/22 00:00:38;;;;;;;28.85;14.82;;;;;;;7.24;100.00;95983.44;4996157;28;20066;-61
2021/11/22 00:03:07;;;;;;;28.33;15.57;;;;;;;7.26;100.00;95991.16;5012747;28;20066;-57
2021/11/22 00:05:36;;;;;;;29.30;15.10;;;;;;;7.35;100.00;95991.19;5000076;28;20069;-60
2021/11/22 00:08:07;;;;;;;29.55;14.25;;;;;;;7.09;100.00;95992.66;4995312;28;20089;-63
2021/11/22 00:10:35;;;;;;;29.00;15.57;;;;;;;7.23;100.00;95989.66;5007411;28;20074;-57
2021/11/22 00:13:04;;;;;;;27.17;14.63;;;;;;;7.30;100.00;95996.00;4997278;28;20077;-58
2021/11/22 00:15:33;;;;;;;27.98;14.30;;;;;;;7.43;100.00;95992.28;4996679;28;20061;-61
2021/11/22 00:18:02;;;;;;;26.75;15.00;;;;;;;7.78;100.00;95992.59;4996599;28;20094;-58
2021/11/22 00:20:30;;;;;;;26.98;15.52;;;;;;;7.87;100.00;95993.53;4995112;28;20068;-62
2021/11/22 00:22:58;;;;;;;27.63;15.45;;;;;;;8.09;100.00;95981.91;4994301;28;20629;-60
2021/11/22 00:25:29;;;;;;;29.10;15.05;;;;;;;8.24;100.00;95980.50;5002194;28;20511;-59
2021/11/22 00:27:57;;;;;;;29.92;15.43;;;;;;;8.33;100.00;95974.41;5002255;28;20082;-61
2021/11/22 00:30:26;;;;;;;27.20;14.82;;;;;;;8.40;100.00;95973.88;5001867;28;20062;-59
2021/11/22 00:32:57;;;;;;;25.70;15.55;;;;;;;8.40;100.00;95972.06;4998732;28;20077;-62
2021/11/22 00:35:32;;;;;;;27.83;14.70;;;;;;;8.40;100.00;95981.75;5005061;28;20074;-55
2021/11/22 00:38:02;;;;;;;26.13;13.80;;;;;;;8.23;100.00;95991.97;4998710;28;20123;-62
2021/11/22 00:40:32;;;;;;;26.45;14.90;;;;;;;8.13;100.00;95990.34;4997152;28;20054;-59
2021/11/22 00:43:01;;;;;;;27.00;14.80;;;;;;;8.23;100.00;95994.59;4996034;28;20073;-59
2021/11/22 00:45:30;;;;;;;26.75;16.10;;;;;;;8.46;100.00;95995.09;4998823;28;20062;-58
2021/11/22 00:47:59;;;;;;;30.38;15.70;;;;;;;8.54;100.00;95997.03;5000759;28;20066;-60
2021/11/22 00:50:28;;;;;;;30.33;16.45;;;;;;;8.44;100.00;95999.69;5008292;28;20058;-60
2021/11/22 00:52:57;;;;;;;25.92;14.38;;;;;;;8.25;100.00;96012.84;5001910;28;20533;-57
2021/11/22 00:55:25;;;;;;;25.90;14.30;;;;;;;8.22;100.00;96008.69;4993441;28;20089;-62
2021/11/22 00:57:55;;;;;;;27.95;15.05;;;;;;;8.28;100.00;96008.13;5000031;28;20065;-61
2021/11/22 01:00:24;;;;;;;29.50;15.00;;;;;;;8.16;100.00;96005.81;5003680;28;20114;-61
2021/11/22 01:02:53;;;;;;;25.17;14.35;;;;;;;8.05;100.00;96001.53;4999315;28;20520;-61
2021/11/22 01:05:21;;;;;;;25.00;14.45;;;;;;;7.97;100.00;95999.59;4992957;28;20072;-62
2021/11/22 01:07:50;;;;;;;25.05;15.10;;;;;;;8.03;100.00;96011.34;4995196;28;20042;-58
2021/11/22 01:10:19;;;;;;;27.00;14.60;;;;;;;7.98;100.00;96021.44;4992765;28;20058;-59
2021/11/22 01:12:48;;;;;;;23.73;14.20;;;;;;;8.12;100.00;96021.03;5008331;28;20069;-60
2021/11/22 01:15:21;;;;;;;26.83;14.73;;;;;;;8.13;100.00;96022.69;5012990;28;20073;-60
2021/11/22 01:17:51;;;;;;;24.13;14.45;;;;;;;8.09;100.00;96023.94;5001487;28;20499;-61
2021/11/22 01:20:28;;;;;;;23.90;14.18;;;;;;;8.09;100.00;96026.56;4996445;28;20076;-62
2021/11/22 01:22:58;;;;;;;22.60;13.95;;;;;;;7.96;100.00;96028.63;4995847;28;20082;-60
2021/11/22 01:25:26;;;;;;;24.20;14.52;;;;;;;8.16;100.00;96032.91;5001497;28;20066;-60
2021/11/22 01:27:55;;;;;;;24.98;14.02;;;;;;;8.19;100.00;96030.00;5001520;28;20066;-61
2021/11/22 01:30:25;;;;;;;24.70;14.23;;;;;;;8.12;100.00;96035.94;4996014;28;20506;-61
2021/11/22 01:32:53;;;;;;;24.13;14.73;;;;;;;8.06;100.00;96019.78;5001459;28;20061;-60
2021/11/22 01:35:22;;;;;;;23.85;15.05;;;;;;;8.22;100.00;96027.06;4995684;28;20372;-61
2021/11/22 01:37:51;;;;;;;26.08;14.50;;;;;;;8.09;100.00;96031.81;4996935;28;20109;-60
2021/11/22 01:40:21;;;;;;;24.98;14.52;;;;;;;8.24;100.00;96032.19;4996922;28;20061;-63
2021/11/22 01:42:50;;;;;;;24.65;14.95;;;;;;;8.08;100.00;96032.75;5000975;28;20085;-61
2021/11/22 01:45:20;;;;;;;25.60;15.15;;;;;;;7.77;100.00;96032.09;5003939;28;20045;-62
2021/11/22 01:47:50;;;;;;;23.73;14.70;;;;;;;8.04;100.00;96031.38;5004056;28;20037;-62
2021/11/22 01:50:20;;;;;;;26.98;15.23;;;;;;;7.92;100.00;96033.34;4999975;28;20077;-63
2021/11/22 01:52:50;;;;;;;26.13;14.57;;;;;;;8.09;100.00;96029.19;5012745;28;20038;-62
2021/11/22 01:55:20;;;;;;;25.35;14.48;;;;;;;8.05;100.00;96033.03;4994473;28;20061;-61
2021/11/22 01:57:50;;;;;;;25.85;15.10;;;;;;;7.96;100.00;96034.72;5000714;28;20065;-57
2021/11/22 02:00:22;;;;;;;26.07;15.50;;;;;;;8.09;100.00;96031.81;4996747;28;20561;-62
2021/11/22 02:02:52;;;;;;;23.35;14.75;;;;;;;8.20;100.00;96036.91;5000265;28;20038;-60
2021/11/22 02:05:21;;;;;;;24.52;14.73;;;;;;;8.08;100.00;96035.38;5000584;28;20046;-60
2021/11/22 02:07:50;;;;;;;26.77;14.43;;;;;;;7.96;100.00;96031.25;4999597;28;20042;-57
2021/11/22 02:10:19;;;;;;;28.73;16.00;;;;;;;8.01;100.00;96027.22;4996758;28;20058;-61
2021/11/22 02:12:48;;;;;;;26.15;15.35;;;;;;;8.00;100.00;96025.59;5003437;28;20049;-62
2021/11/22 02:15:18;;;;;;;25.05;14.27;;;;;;;8.00;100.00;96025.59;5001053;28;20068;-62
2021/11/22 02:17:48;;;;;;;26.48;15.05;;;;;;;8.08;100.00;96023.09;4999316;28;20077;-61
2021/11/22 02:20:20;;;;;;;26.42;15.60;;;;;;;8.13;100.00;96027.09;4996765;28;20058;-62
2021/11/22 02:22:50;;;;;;;26.40;14.80;;;;;;;8.31;100.00;96035.91;4999265;28;20050;-60
2021/11/22 02:25:21;;;;;;;28.27;15.60;;;;;;;8.43;100.00;96031.34;4999959;28;20066;-62
2021/11/22 02:27:50;;;;;;;28.38;16.30;;;;;;;8.43;100.00;96037.47;4994177;28;20643;-62
2021/11/22 02:30:20;;;;;;;25.85;14.77;;;;;;;8.47;100.00;96035.38;4996486;28;20074;-64
2021/11/22 02:32:49;;;;;;;24.27;14.60;;;;;;;8.36;100.00;96038.13;5000672;28;20057;-61
2021/11/22 02:35:21;;;;;;;25.00;14.40;;;;;;;8.41;100.00;96047.28;5001238;28;20066;-61
2021/11/22 02:37:49;;;;;;;25.38;15.05;;;;;;;8.48;100.00;96042.28;4998754;28;20724;-61
2021/11/22 02:40:18;;;;;;;23.80;14.75;;;;;;;8.46;100.00;96044.22;5003809;28;20081;-62
2021/11/22 02:42:47;;;;;;;24.20;14.55;;;;;;;8.39;100.00;96048.38;4999102;28;20054;-57
2021/11/22 02:45:18;;;;;;;24.42;14.73;;;;;;;8.46;100.00;96049.47;4999427;28;20070;-62
2021/11/22 02:47:49;;;;;;;25.50;15.25;;;;;;;8.41;100.00;96046.44;5000830;28;20080;-58
2021/11/22 02:50:20;;;;;;;24.27;14.70;;;;;;;8.20;100.00;96047.41;5007091;28;20100;-62
2021/11/22 02:52:49;;;;;;;24.67;15.02;;;;;;;7.90;100.00;96055.44;5000627;28;20085;-62
2021/11/22 02:55:20;;;;;;;25.00;14.87;;;;;;;8.14;100.00;96052.41;5005430;28;20432;-59
2021/11/22 02:57:48;;;;;;;28.48;16.40;;;;;;;8.21;100.00;96049.06;5000086;28;20501;-61
2021/11/22 03:00:19;;;;;;;23.92;14.77;;;;;;;7.80;100.00;96055.44;4999786;28;20054;-60
2021/11/22 03:02:47;;;;;;;;;;;;;;;7.29;100.00;96064.31;4994774;28;20039;-63
2021/11/22 03:05:16;;;;;;;28.77;15.40;;;;;;;7.35;100.00;96061.16;4995349;28;19937;-62
2021/11/22 03:07:47;;;;;;;28.27;15.75;;;;;;;7.32;100.00;96058.81;5002307;28;20061;-59
2021/11/22 03:10:15;;;;;;;;;;;;;;;7.56;100.00;96063.69;4983297;28;20194;-59
2021/11/22 03:12:45;;;;;;;25.48;15.20;;;;;;;7.47;100.00;96064.53;4978578;28;20418;-64
2021/11/22 03:15:15;;;;;;;25.17;15.60;;;;;;;7.47;100.00;96069.78;4979658;28;20038;-63
2021/11/22 03:17:44;;;;;;;24.60;14.77;;;;;;;7.49;100.00;96070.44;4987546;28;20042;-62
2021/11/22 03:20:17;;;;;;;23.73;14.75;;;;;;;7.39;100.00;96065.19;4995081;28;20050;-62
2021/11/22 03:22:47;;;;;;;26.05;16.23;;;;;;;7.48;100.00;96061.75;4997942;28;20058;-62
2021/11/22 03:25:16;;;;;;;25.38;14.63;;;;;;;7.57;100.00;96060.94;4978335;28;20043;-62
2021/11/22 03:27:46;;;;;;;26.95;15.55;;;;;;;7.47;100.00;96069.78;4991923;28;20042;-59
2021/11/22 03:30:15;;;;;;;25.67;14.87;;;;;;;7.81;100.00;96068.44;4991163;28;20542;-61
2021/11/22 03:32:45;;;;;;;25.70;15.48;;;;;;;7.87;100.00;96080.16;4979242;28;20045;-62
2021/11/22 03:35:14;;;;;;;26.00;15.00;;;;;;;7.94;100.00;96081.28;4976344;28;20055;-63
2021/11/22 03:37:43;;;;;;;25.63;15.97;;;;;;;8.02;100.00;96076.19;4982396;28;20061;-61
2021/11/22 03:40:14;;;;;;;25.17;14.80;;;;;;;8.23;100.00;96078.66;4988763;28;20489;-59
2021/11/22 03:42:52;;;;;;;23.33;14.35;;;;;;;8.21;100.00;96085.00;4982669;28;20074;-62
2021/11/22 03:45:21;;;;;;;23.90;14.63;;;;;;;8.33;100.00;96084.72;4983834;28;20073;-60
2021/11/22 03:47:49;;;;;;;25.73;14.57;;;;;;;8.13;100.00;96090.97;4989028;28;20053;-62
2021/11/22 03:50:18;;;;;;;25.70;15.70;;;;;;;8.26;100.00;96098.56;5000419;28;20156;-62
2021/11/22 03:52:46;;;;;;;23.95;14.77;;;;;;;8.32;100.00;96092.75;4996815;28;20054;-63
2021/11/22 03:55:16;;;;;;;25.63;15.20;;;;;;;8.33;100.00;96105.75;4994945;28;20394;-59
2021/11/22 03:57:46;;;;;;;25.33;15.15;;;;;;;8.31;100.00;96105.03;4994165;28;20049;-58
2021/11/22 04:00:15;;;;;;;31.13;15.30;;;;;;;8.33;100.00;96097.88;4994648;28;20047;-62
2021/11/22 04:02:44;;;;;;;26.33;15.90;;;;;;;8.24;100.00;96100.50;4995656;28;20054;-62
2021/11/22 04:05:12;;;;;;;27.30;14.95;;;;;;;8.22;100.00;96102.41;4981559;28;20055;-62
2021/11/22 04:07:40;;;;;;;26.42;15.32;;;;;;;8.09;100.00;96105.34;5001298;28;20535;-61
2021/11/22 04:10:09;;;;;;;25.55;14.48;;;;;;;8.12;100.00;96109.47;4976226;28;20516;-55
2021/11/22 04:12:39;;;;;;;26.60;14.77;;;;;;;8.21;100.00;96119.16;4989814;28;20070;-50
2021/11/22 04:15:26;;;;;;;26.13;15.05;;;;;;;8.11;100.00;96115.69;4981683;28;20045;-53
2021/11/22 04:17:55;;;;;;;27.58;15.70;;;;;;;8.24;100.00;96126.75;4988774;28;20077;-52
2021/11/22 04:20:23;;;;;;;28.67;16.38;;;;;;;8.16;100.00;96124.84;4990680;28;20540;-54
2021/11/22 04:22:52;;;;;;;26.55;14.98;;;;;;;8.11;100.00;96126.19;5000259;28;20081;-56
2021/11/22 04:25:21;;;;;;;30.80;15.85;;;;;;;8.01;100.00;96134.88;4979551;28;20478;-50
2021/11/22 04:27:51;;;;;;;28.15;16.40;;;;;;;8.16;100.00;96130.09;4992525;28;20727;-50
2021/11/22 04:30:19;;;;;;;29.27;15.88;;;;;;;7.93;100.00;96134.75;4989189;28;20072;-52
2021/11/22 04:32:48;;;;;;;27.58;15.88;;;;;;;8.12;100.00;96143.59;4982474;28;20080;-57
2021/11/22 04:35:16;;;;;;;30.70;16.98;;;;;;;8.04;100.00;96139.88;4995119;28;20088;-53
2021/11/22 04:37:45;;;;;;;29.98;16.02;;;;;;;7.99;100.00;96136.00;4986584;28;20050;-52
2021/11/22 04:40:16;;;;;;;27.70;16.55;;;;;;;8.06;100.00;96145.84;4989518;28;20070;-51
2021/11/22 04:42:47;;;;;;;31.40;16.70;;;;;;;8.07;100.00;96147.47;4995763;28;20098;-52
2021/11/22 04:45:19;;;;;;;29.45;15.68;;;;;;;8.07;100.00;96147.47;4993843;28;20069;-53
2021/11/22 04:47:48;;;;;;;27.52;16.20;;;;;;;8.14;100.00;96150.38;4996790;28;20081;-52
2021/11/22 04:50:18;;;;;;;31.23;16.08;;;;;;;8.01;100.00;96158.53;4998484;28;20073;-52
2021/11/22 04:52:48;;;;;;;28.87;17.20;;;;;;;7.93;100.00;96153.13;4997145;28;20485;-53
2021/11/22 04:55:18;;;;;;;30.98;16.20;;;;;;;8.16;100.00;96153.72;4993684;28;20073;-54
2021/11/22 04:57:47;;;;;;;35.78;17.85;;;;;;;8.15;100.00;96153.84;4993559;28;20069;-50
2021/11/22 05:00:20;;;;;;;32.03;17.50;;;;;;;8.18;100.00;96151.78;4995104;28;20069;-52
2021/11/22 05:02:48;;;;;;;29.90;17.45;;;;;;;8.12;100.00;96157.59;4998240;28;20065;-57
2021/11/22 05:05:17;;;;;;;30.33;16.23;;;;;;;8.01;100.00;96160.31;5001348;28;20761;-50
2021/11/22 05:07:48;;;;;;;33.15;16.13;;;;;;;8.16;100.00;96160.78;5002864;28;20082;-54
2021/11/22 05:10:33;;;;;;;31.77;16.15;;;;;;;8.23;100.00;96165.34;4984604;28;20316;-53
2021/11/22 05:13:03;;;;;;;37.65;18.08;;;;;;;8.27;100.00;96171.16;4990819;28;20081;-50
2021/11/22 05:15:33;;;;;;;;;;;;;;;8.23;100.00;96165.34;5000816;28;20073;-54
2021/11/22 05:18:01;;;;;;;27.13;16.48;;;;;;;8.33;100.00;96173.22;4995106;28;19983;-50
2021/11/22 05:20:30;;;;;;;32.20;17.05;;;;;;;8.27;100.00;96171.97;4994979;28;20108;-51
2021/11/22 05:22:59;;;;;;;30.92;15.85;;;;;;;8.25;100.00;96173.06;5000530;28;20117;-53
2021/11/22 05:25:27;;;;;;;31.70;17.90;;;;;;;8.40;100.00;96173.53;4996170;28;21359;-50
2021/11/22 05:27:56;;;;;;;30.85;16.45;;;;;;;8.23;100.00;96180.28;4997152;28;20077;-52
2021/11/22 05:30:26;;;;;;;29.75;17.08;;;;;;;8.40;100.00;96179.63;4993628;28;20085;-52
2021/11/22 05:32:58;;;;;;;28.42;16.50;;;;;;;8.52;100.00;96175.88;5003895;28;20076;-54
2021/11/22 05:35:28;;;;;;;31.30;17.55;;;;;;;8.45;100.00;96187.91;4988192;28;20648;-47
2021/11/22 05:37:56;;;;;;;31.65;17.13;;;;;;;8.40;100.00;96187.50;5003162;28;20073;-51
2021/11/22 05:40:25;;;;;;;29.75;16.88;;;;;;;8.57;100.00;96191.25;4992688;28;20381;-52
2021/11/22 05:42:54;;;;;;;33.75;16.40;;;;;;;8.48;100.00;96185.00;4996078;28;20065;-54
2021/11/22 05:45:23;;;;;;;30.08;16.27;;;;;;;8.42;100.00;96182.09;4997844;28;20148;-49
2021/11/22 05:47:51;;;;;;;29.17;16.50;;;;;;;8.42;100.00;96188.19;5002949;28;20065;-49
2021/11/22 05:50:22;;;;;;;30.95;17.45;;;;;;;8.19;100.00;96184.97;4995657;28;20077;-51
2021/11/22 05:52:52;;;;;;;31.05;17.45;;;;;;;8.26;100.00;96191.34;5000424;28;20081;-52
2021/11/22 05:55:33;;;;;;;29.17;16.75;;;;;;;8.29;100.00;96198.09;4987928;28;20086;-49
2021/11/22 05:58:03;;;;;;;32.63;17.00;;;;;;;8.13;100.00;96201.25;4983840;28;20070;-50
2021/11/22 06:00:31;;;;;;;34.33;17.88;;;;;;;8.17;100.00;96207.06;4981442;28;20077;-52
2021/11/22 06:03:00;;;;;;;29.20;17.40;;;;;;;8.14;100.00;96202.91;4988015;28;20085;-52
2021/11/22 06:05:30;;;;;;;29.85;16.80;;;;;;;8.24;100.00;96214.28;4989729;28;20058;-51
2021/11/22 06:07:58;;;;;;;29.45;16.85;;;;;;;7.85;100.00;96218.63;4975054;28;20081;-53
2021/11/22 06:10:27;;;;;;;45.10;24.50;;;;;;;8.16;100.00;96216.75;4996354;28;20066;-49
2021/11/22 06:12:56;;;;;;;30.70;17.48;;;;;;;8.15;100.00;96217.69;4990175;28;20062;-49
2021/11/22 06:15:24;;;;;;;32.05;17.05;;;;;;;8.07;100.00;96221.00;4995673;28;20080;-48
2021/11/22 06:17:53;;;;;;;30.98;17.17;;;;;;;8.04;100.00;96220.44;4992012;28;20061;-50
2021/11/22 06:20:22;;;;;;;29.67;17.30;;;;;;;8.13;100.00;96222.28;4986612;28;20076;-50
2021/11/22 06:22:51;;;;;;;30.40;17.83;;;;;;;8.20;100.00;96235.69;4994795;28;20077;-53
2021/11/22 06:25:20;;;;;;;30.97;17.23;;;;;;;8.22;100.00;96236.38;4986171;28;20066;-56
2021/11/22 06:27:50;;;;;;;32.85;17.70;;;;;;;8.20;100.00;96230.44;4996954;28;20495;-50
2021/11/22 06:30:18;;;;;;;30.23;17.35;;;;;;;7.98;100.00;96242.84;4997260;28;20085;-53
2021/11/22 06:32:47;;;;;;;30.30;16.88;;;;;;;8.19;100.00;96239.28;4986638;28;20061;-51
2021/11/22 06:35:17;;;;;;;31.42;17.45;;;;;;;8.28;100.00;96243.72;4986360;28;20092;-53
2021/11/22 06:37:46;;;;;;;34.30;17.25;;;;;;;8.19;100.00;96240.13;4988739;28;20143;-48
2021/11/22 06:40:16;;;;;;;27.98;16.58;;;;;;;8.38;100.00;96249.84;4989287;28;20084;-52
2021/11/22 06:42:45;;;;;;;28.60;16.70;;;;;;;8.31;100.00;96248.72;4998422;28;20069;-53
2021/11/22 06:45:14;;;;;;;32.30;17.55;;;;;;;8.43;100.00;96252.06;4989984;28;21064;-50
2021/11/22 06:47:42;;;;;;;33.38;18.13;;;;;;;8.50;100.00;96247.94;4996280;28;20037;-52
2021/11/22 06:50:11;;;;;;;29.92;17.35;;;;;;;8.39;100.00;96255.94;4993317;28;20115;-49
2021/11/22 06:52:40;;;;;;;30.45;16.77;;;;;;;8.55;100.00;96251.81;4997389;28;20097;-51
2021/11/22 06:55:09;;;;;;;32.78;18.13;;;;;;;8.59;100.00;96262.88;4986393;28;20429;-51
2021/11/22 06:57:39;;;;;;;31.70;17.95;;;;;;;8.56;100.00;96258.72;4988630;28;20058;-51
2021/11/22 07:00:09;;;;;;;29.05;15.93;;;;;;;8.65;100.00;96266.78;5008926;28;20069;-47
2021/11/22 07:02:38;;;;;;;;;;;;;;;8.51;100.00;96266.19;4986588;28;20165;-53
2021/11/22 07:05:08;;;;;;;26.80;15.25;;;;;;;8.44;100.00;96272.13;4997048;28;20404;-51
2021/11/22 07:07:36;;;;;;;30.15;16.83;;;;;;;8.48;100.00;96276.97;4988506;28;20074;-55
2021/11/22 07:10:06;;;;;;;29.45;16.13;;;;;;;8.45;100.00;96276.41;4986316;28;20070;-52
2021/11/22 07:12:34;;;;;;;30.23;16.60;;;;;;;8.47;100.00;96283.22;4985347;28;20073;-50
2021/11/22 07:15:05;;;;;;;32.70;17.38;;;;;;;8.46;100.00;96288.59;4988703;28;20073;-58
2021/11/22 07:17:33;;;;;;;29.27;16.58;;;;;;;8.40;100.00;96297.84;4994532;28;20116;-50
2021/11/22 07:20:02;;;;;;;32.10;17.77;;;;;;;8.54;100.00;96294.84;4993041;28;20552;-51
2021/11/22 07:22:30;;;;;;;32.88;18.05;;;;;;;8.50;100.00;96305.78;4988073;28;20086;-51
2021/11/22 07:24:58;;;;;;;33.50;17.48;;;;;;;8.47;100.00;96306.88;4986051;28;20548;-50
2021/11/22 07:27:27;;;;;;;30.45;17.50;;;;;;;8.55;100.00;96308.81;4998370;28;20521;-53
2021/11/22 07:29:57;;;;;;;31.02;16.90;;;;;;;8.52;100.00;96312.53;4987512;28;20070;-55
2021/11/22 07:32:27;;;;;;;30.35;17.55;;;;;;;8.51;100.00;96316.13;4993955;28;20057;-53
2021/11/22 07:34:57;;;;;;;32.83;17.77;;;;;;;8.48;100.00;96318.19;4993601;28;20547;-55
2021/11/22 07:37:25;;;;;;;32.70;17.67;;;;;;;8.33;100.00;96329.06;4985281;28;20472;-48
2021/11/22 07:39:54;;;;;;;30.55;17.13;;;;;;;8.38;100.00;96323.44;4991696;28;20069;-49
2021/11/22 07:42:22;;;;;;;30.95;17.38;;;;;;;8.39;100.00;96329.50;4993616;28;20072;-54
2021/11/22 07:44:50;;;;;;;33.83;18.05;;;;;;;8.36;100.00;96325.31;4985858;28;20453;-54
2021/11/22 07:47:19;;;;;;;30.95;17.13;;;;;;;8.35;100.00;96333.34;4994397;28;20391;-52
2021/11/22 07:49:49;;;;;;;28.65;17.15;;;;;;;8.23;100.00;96335.25;4992361;28;20069;-51
2021/11/22 07:52:18;;;;;;;32.22;17.35;;;;;;;8.40;100.00;96337.28;4995394;28;20077;-50
2021/11/22 07:54:48;;;;;;;35.35;20.33;;;;;;;8.22;100.00;96341.44;5000574;28;20069;-53
2021/11/22 07:57:16;;;;;;;33.40;18.50;;;;;;;8.27;100.00;96339.28;4995712;28;20466;-53
2021/11/22 07:59:45;;;;;;;30.77;16.00;;;;;;;8.24;100.00;96348.25;5005599;28;20065;-49
2021/11/22 08:02:13;;;;;;;30.65;16.75;;;;;;;8.15;100.00;96348.19;5004336;28;20066;-54
2021/11/22 08:04:42;;;;;;;32.80;18.50;;;;;;;8.29;100.00;96350.47;4993600;28;20076;-53
2021/11/22 08:07:15;;;;;;;33.35;17.60;;;;;;;8.36;100.00;96358.63;4991576;28;20590;-51
2021/11/22 08:09:54;;;;;;;32.85;18.48;;;;;;;8.44;100.00;96366.75;4989424;28;20082;-56
2021/11/22 08:12:27;;;;;;;29.35;16.00;;;;;;;8.25;100.00;96370.09;5000981;28;20073;-51
2021/11/22 08:15:00;;;;;;;31.67;16.98;;;;;;;8.27;100.00;96363.75;4990351;28;20042;-50
2021/11/22 08:17:30;;;;;;;32.67;18.13;;;;;;;8.34;100.00;96374.56;5001561;28;20065;-50
2021/11/22 08:19:59;;;;;;;32.97;17.63;;;;;;;8.45;100.00;96371.84;5002747;28;20073;-50
2021/11/22 08:22:29;;;;;;;34.75;19.13;;;;;;;8.47;100.00;96375.19;4990568;28;21318;-50
2021/11/22 08:24:57;;;;;;;31.60;18.40;;;;;;;8.66;100.00;96378.81;4991549;28;20057;-52
2021/11/22 08:27:29;;;;;;;29.27;16.02;;;;;;;8.43;100.00;96383.44;4987550;28;20077;-52
2021/11/22 08:29:58;;;;;;;30.55;15.70;;;;;;;8.17;100.00;96385.69;4990757;28;20065;-55
2021/11/22 08:32:26;;;;;;;27.77;16.38;;;;;;;8.16;100.00;96379.59;4988595;28;20081;-53
2021/11/22 08:34:55;;;;;;;31.52;16.17;;;;;;;8.06;100.00;96381.34;4996715;28;20536;-49
2021/11/22 08:37:23;;;;;;;30.70;16.00;;;;;;;8.18;100.00;96393.41;4996068;28;20069;-51
2021/11/22 08:39:53;;;;;;;32.50;17.60;;;;;;;8.06;100.00;96390.06;4988306;28;20085;-50
2021/11/22 08:42:22;;;;;;;31.85;17.08;;;;;;;8.00;100.00;96400.25;4992613;28;20078;-52
2021/11/22 08:44:51;;;;;;;31.67;16.33;;;;;;;7.84;100.00;96398.06;4988203;28;20573;-50
2021/11/22 08:47:20;;;;;;;31.63;16.90;;;;;;;7.80;100.00;96408.00;5003865;28;20050;-51
2021/11/22 08:49:50;;;;;;;27.90;15.30;;;;;;;7.66;100.00;96408.31;5010553;28;20089;-51
2021/11/22 08:52:19;;;;;;;30.80;16.38;;;;;;;7.72;100.00;96414.88;4999050;28;20090;-52
2021/11/22 08:54:47;;;;;;;29.33;15.25;;;;;;;8.11;100.00;96418.53;5001863;28;20065;-48
2021/11/22 08:57:17;;;;;;;33.28;16.50;;;;;;;8.12;100.00;96420.22;5000350;28;20520;-48
2021/11/22 08:59:46;;;;;;;30.40;17.17;;;;;;;8.20;100.00;96423.03;4989480;28;20070;-56
2021/11/22 09:02:15;;;;;;;30.30;16.38;;;;;;;8.46;100.00;96419.97;4996182;28;20112;-55
2021/11/22 09:04:43;;;;;;;31.60;16.52;;;;;;;8.46;100.00;96425.22;5002074;28;20070;-51
2021/11/22 09:07:12;;;;;;;33.67;17.13;;;;;;;8.33;100.00;96428.91;4993244;28;20073;-51
2021/11/22 09:09:40;;;;;;;32.00;17.20;;;;;;;8.35;100.00;96443.69;4987870;28;20077;-52
2021/11/22 09:12:09;;;;;;;30.65;16.10;;;;;;;8.68;100.00;96435.56;5001632;28;20516;-52
2021/11/22 09:14:39;;;;;;;29.58;15.32;;;;;;;8.74;100.00;96445.56;4993658;28;20062;-50
2021/11/22 09:17:07;;;;;;;31.25;16.23;;;;;;;8.82;100.00;96444.06;4990328;28;20544;-53
2021/11/22 09:19:37;;;;;;;30.92;16.60;;;;;;;8.58;100.00;96439.94;4990612;28;20077;-52
2021/11/22 09:22:10;;;;;;;30.05;16.30;;;;;;;8.79;100.00;96447.78;4992544;28;20077;-54
2021/11/22 09:24:39;;;;;;;30.42;16.33;;;;;;;8.63;100.00;96439.53;4987620;28;20077;-49
2021/11/22 09:27:08;;;;;;;29.48;15.68;;;;;;;8.46;100.00;96446.25;4994933;28;20058;-51
2021/11/22 09:29:37;;;;;;;29.00;15.95;;;;;;;8.65;100.00;96437.63;5001297;28;20062;-53
2021/11/22 09:32:08;;;;;;;30.08;15.48;;;;;;;8.89;100.00;96442.53;4992368;28;20081;-48
2021/11/22 09:34:37;;;;;;;28.63;15.20;;;;;;;8.76;100.00;96453.28;4989791;28;20078;-53
2021/11/22 09:37:06;;;;;;;28.70;16.10;;;;;;;8.31;100.00;96448.38;4999160;28;20077;-48
2021/11/22 09:39:35;;;;;;;27.83;15.50;;;;;;;8.66;100.00;96452.44;5000566;28;20541;-50
2021/11/22 09:42:05;;;;;;;28.30;15.68;;;;;;;8.54;100.00;96454.31;4987365;28;20061;-50
2021/11/22 09:44:33;;;;;;;27.45;14.95;;;;;;;8.58;100.00;96458.34;4987323;28;20061;-56
2021/11/22 09:47:02;;;;;;;27.40;15.45;;;;;;;8.43;100.00;96465.75;5000889;28;20462;-54
2021/11/22 09:49:33;;;;;;;25.52;14.70;;;;;;;8.16;100.00;96470.72;5003990;28;20077;-51
2021/11/22 09:52:01;;;;;;;25.08;14.73;;;;;;;8.14;100.00;96464.72;4987564;28;20057;-55
2021/11/22 09:54:29;;;;;;;25.60;13.85;;;;;;;8.13;100.00;96465.72;4994181;28;20077;-49
2021/11/22 09:56:58;;;;;;;26.30;15.43;;;;;;;8.19;100.00;96465.16;4989186;28;20525;-55
2021/11/22 09:59:26;;;;;;;27.45;16.00;;;;;;;8.69;100.00;96455.63;4987337;28;20124;-49
2021/11/22 10:01:56;;;;;;;25.98;15.27;;;;;;;8.62;100.00;96459.75;4995146;28;20085;-54
2021/11/22 10:04:30;;;;;;;28.73;14.98;;;;;;;8.52;100.00;96466.75;4986028;28;20298;-48
2021/11/22 10:07:01;;;;;;;26.33;13.90;;;;;;;8.61;100.00;96463.34;4992138;28;20069;-53
2021/11/22 10:09:45;;;;;;;23.50;13.45;;;;;;;8.80;100.00;96465.19;4996323;28;20081;-53
2021/11/22 10:12:17;;;;;;;24.48;14.68;;;;;;;8.77;100.00;96461.06;4995276;28;20484;-53
2021/11/22 10:14:48;;;;;;;24.13;14.43;;;;;;;8.21;100.00;96474.59;4986729;28;20073;-52
2021/11/22 10:17:30;;;;;;;24.77;13.45;;;;;;;8.54;100.00;96464.84;4992382;28;20085;-50
2021/11/22 10:20:22;;;;;;;24.48;13.32;;;;;;;8.77;100.00;96471.59;5008886;28;20088;-51
2021/11/22 10:23:00;;;;;;;22.85;13.82;;;;;;;8.27;100.00;96471.44;4986783;28;21733;-52
2021/11/22 10:25:32;;;;;;;25.20;13.23;;;;;;;8.36;100.00;96482.13;4985840;28;20333;-47
2021/11/22 10:28:12;;;;;;;24.13;14.07;;;;;;;8.68;100.00;96482.06;4991307;28;20065;-51
2021/11/22 10:30:43;;;;;;;21.80;13.20;;;;;;;8.17;100.00;96488.13;5005873;28;20057;-52
2021/11/22 10:33:13;;;;;;;21.50;12.80;;;;;;;8.20;100.00;96487.88;4993360;28;20073;-48
2021/11/22 10:35:42;;;;;;;21.77;12.75;;;;;;;8.38;100.00;96482.88;4999812;28;20061;-53
2021/11/22 10:38:15;;;;;;;24.75;13.13;;;;;;;8.29;100.00;96489.69;4986399;28;20081;-51
2021/11/22 10:40:46;;;;;;;22.35;14.48;;;;;;;8.70;100.00;96480.94;4989153;28;20101;-56
2021/11/22 10:43:15;;;;;;;23.60;14.35;;;;;;;8.44;100.00;96482.38;4995055;28;20089;-52
2021/11/22 10:45:47;;;;;;;23.63;13.73;;;;;;;8.24;100.00;96478.75;5000081;28;20462;-54
2021/11/22 10:48:21;;;;;;;23.33;14.05;;;;;;;9.03;100.00;96471.09;4993235;28;20081;-49
2021/11/22 10:50:53;;;;;;;20.05;11.82;;;;;;;8.52;100.00;96475.47;4993853;28;20074;-52
2021/11/22 10:53:38;;;;;;;21.63;12.02;;;;;;;8.83;100.00;96469.38;4992857;28;20062;-52
2021/11/22 10:56:09;;;;;;;18.90;11.32;;;;;;;8.59;100.00;96470.53;4986390;28;20529;-51
2021/11/22 10:58:45;;;;;;;21.63;13.20;;;;;;;8.61;100.00;96478.28;4989311;28;20085;-50
2021/11/22 11:01:26;;;;;;;22.60;13.07;;;;;;;8.75;100.00;96477.94;4995686;28;20054;-51
2021/11/22 11:03:57;;;;;;;21.63;13.07;;;;;;;8.71;100.00;96487.06;4997946;28;20070;-50
2021/11/22 11:06:43;;;;;;;22.75;12.90;;;;;;;8.94;100.00;96479.78;5002806;28;20073;-49
2021/11/22 11:09:16;;;;;;;21.63;13.35;;;;;;;9.00;100.00;96484.50;4986118;28;20070;-54
2021/11/22 11:11:46;;;;;;;23.83;13.35;;;;;;;9.41;100.00;96477.38;4988117;28;20069;-47
2021/11/22 11:14:17;;;;;;;23.55;13.65;;;;;;;9.04;100.00;96480.63;4993196;28;20086;-50
2021/11/22 11:16:45;;;;;;;22.58;13.30;;;;;;;9.10;100.00;96487.16;4998566;28;20571;-50
2021/11/22 11:19:15;;;;;;;24.52;12.80;;;;;;;9.12;100.00;96485.22;5000674;28;20096;-54
2021/11/22 11:21:46;;;;;;;21.50;13.25;;;;;;;9.13;100.00;96485.09;4998270;28;20081;-53
2021/11/22 11:24:16;;;;;;;;;;;;;;;9.23;100.00;96487.75;4987867;28;20268;-52
2021/11/22 11:26:46;;;;;;;19.48;10.88;;;;;;;8.87;100.00;96499.69;5002715;28;19969;-51
2021/11/22 11:29:15;;;;;;;25.27;13.75;;;;;;;8.55;100.00;96498.03;5000417;28;20069;-49
2021/11/22 11:31:43;;;;;;;21.08;12.85;;;;;;;8.65;100.00;96504.16;4995696;28;20085;-53